Alexandria, Minnesota
Current Conditions -  °F | °C
As of 9:18 PM on Wednesday 22 Oct 2014 (Local Time) from KAXN Reporting Station
Light Rain Light Rain  
Wind Chill: 54°   Ceiling: 1000
Heat Index: 54°   Visibility: 2.5mi
Dew Point: 52°   Wind: 12mph
Humidity: 93%   Direction: 180°S
Pressure: 29.95"   Gusts: NA
Location:  45.89°N, 95.37°W
Report Text: KAXN 230218Z AUTO 18010KT 2 1/2SM -RA BR OVC010 12/11 A2995 RMK AO2 P0004 T01220111
Loading
Personal Weather Stations






























Interactive Weather Map
Tropical Storm Tracking
New forecast layout! Learn more

10-Day Weather Forecast

Advertisements
Track Severe Weather on mobile